sensor_id;sensor_type;location;lat;lon;timestamp;pressure;altitude;pressure_sealevel;temperature;humidity
16544;BME280;8384;47.996;7.786;2023-04-06T00:01:19;99041.84;;;3.12;51.97
16544;BME280;8384;47.996;7.786;2023-04-06T00:03:44;99041.59;;;3.07;51.98
16544;BME280;8384;47.996;7.786;2023-04-06T00:06:09;99036.19;;;3.00;52.22
16544;BME280;8384;47.996;7.786;2023-04-06T00:08:35;99035.81;;;3.03;52.24
16544;BME280;8384;47.996;7.786;2023-04-06T00:11:00;99017.91;;;2.89;51.76
16544;BME280;8384;47.996;7.786;2023-04-06T00:13:26;99034.53;;;2.92;51.78
16544;BME280;8384;47.996;7.786;2023-04-06T00:15:51;99031.22;;;2.97;51.75
16544;BME280;8384;47.996;7.786;2023-04-06T00:18:17;98998.97;;;2.75;51.58
16544;BME280;8384;47.996;7.786;2023-04-06T00:20:42;99027.47;;;2.91;52.19
16544;BME280;8384;47.996;7.786;2023-04-06T00:23:07;99022.25;;;2.83;52.18
16544;BME280;8384;47.996;7.786;2023-04-06T00:25:32;99003.91;;;2.58;52.59
16544;BME280;8384;47.996;7.786;2023-04-06T00:27:58;99018.50;;;2.77;52.60
16544;BME280;8384;47.996;7.786;2023-04-06T00:30:23;99016.66;;;2.78;52.91
16544;BME280;8384;47.996;7.786;2023-04-06T00:32:48;99006.88;;;2.77;52.15
16544;BME280;8384;47.996;7.786;2023-04-06T00:35:13;99019.13;;;2.73;52.19
16544;BME280;8384;47.996;7.786;2023-04-06T00:37:40;99017.47;;;2.78;52.30
16544;BME280;8384;47.996;7.786;2023-04-06T00:40:06;99015.19;;;2.82;51.63
16544;BME280;8384;47.996;7.786;2023-04-06T00:42:31;99018.28;;;2.79;52.30
16544;BME280;8384;47.996;7.786;2023-04-06T00:44:59;99013.41;;;2.47;52.82
16544;BME280;8384;47.996;7.786;2023-04-06T00:47:25;99016.59;;;2.64;52.99
16544;BME280;8384;47.996;7.786;2023-04-06T00:49:54;99013.09;;;2.64;52.70
16544;BME280;8384;47.996;7.786;2023-04-06T00:52:20;99011.16;;;2.51;52.88
16544;BME280;8384;47.996;7.786;2023-04-06T00:54:45;99018.25;;;2.59;52.89
16544;BME280;8384;47.996;7.786;2023-04-06T00:57:12;99020.97;;;2.65;53.05
16544;BME280;8384;47.996;7.786;2023-04-06T00:59:37;98998.28;;;2.53;52.35
16544;BME280;8384;47.996;7.786;2023-04-06T01:02:03;99022.00;;;2.64;53.14
16544;BME280;8384;47.996;7.786;2023-04-06T01:04:28;99016.59;;;2.64;51.88
16544;BME280;8384;47.996;7.786;2023-04-06T01:06:53;99002.09;;;2.72;52.78
16544;BME280;8384;47.996;7.786;2023-04-06T01:09:19;99002.63;;;2.40;52.89
16544;BME280;8384;47.996;7.786;2023-04-06T01:11:44;99007.59;;;2.44;53.22
16544;BME280;8384;47.996;7.786;2023-04-06T01:14:10;99017.56;;;2.43;53.23
16544;BME280;8384;47.996;7.786;2023-04-06T01:16:36;98996.91;;;2.15;53.56
16544;BME280;8384;47.996;7.786;2023-04-06T01:19:07;99012.03;;;2.16;54.39
16544;BME280;8384;47.996;7.786;2023-04-06T01:21:33;98984.19;;;2.02;54.38
16544;BME280;8384;47.996;7.786;2023-04-06T01:23:59;99011.63;;;2.13;55.20
16544;BME280;8384;47.996;7.786;2023-04-06T01:26:24;99003.53;;;2.13;54.72
16544;BME280;8384;47.996;7.786;2023-04-06T01:28:49;99007.00;;;2.06;55.19
16544;BME280;8384;47.996;7.786;2023-04-06T01:31:14;99006.97;;;1.93;55.93
16544;BME280;8384;47.996;7.786;2023-04-06T01:33:40;99004.69;;;1.97;56.03
16544;BME280;8384;47.996;7.786;2023-04-06T01:36:05;99004.19;;;1.86;57.24
16544;BME280;8384;47.996;7.786;2023-04-06T01:38:31;98979.91;;;1.79;57.16
16544;BME280;8384;47.996;7.786;2023-04-06T01:40:56;98988.75;;;2.02;56.59
16544;BME280;8384;47.996;7.786;2023-04-06T01:43:21;98964.63;;;1.87;56.16
16544;BME280;8384;47.996;7.786;2023-04-06T01:45:48;98976.47;;;1.99;56.11
16544;BME280;8384;47.996;7.786;2023-04-06T01:48:13;99002.13;;;1.88;56.05
16544;BME280;8384;47.996;7.786;2023-04-06T01:50:38;98985.88;;;1.68;56.71
16544;BME280;8384;47.996;7.786;2023-04-06T01:53:03;98986.53;;;1.77;56.54
16544;BME280;8384;47.996;7.786;2023-04-06T01:55:29;98994.59;;;1.70;57.24
16544;BME280;8384;47.996;7.786;2023-04-06T01:57:54;98993.22;;;1.53;57.70
16544;BME280;8384;47.996;7.786;2023-04-06T02:00:20;98987.50;;;1.34;58.38
16544;BME280;8384;47.996;7.786;2023-04-06T02:02:45;98990.25;;;1.47;57.83
16544;BME280;8384;47.996;7.786;2023-04-06T02:05:10;99001.16;;;1.61;57.37
16544;BME280;8384;47.996;7.786;2023-04-06T02:07:36;98992.66;;;1.57;57.11
16544;BME280;8384;47.996;7.786;2023-04-06T02:10:02;98997.63;;;1.32;58.48
16544;BME280;8384;47.996;7.786;2023-04-06T02:12:27;98976.63;;;1.49;57.45
16544;BME280;8384;47.996;7.786;2023-04-06T02:14:52;98987.41;;;1.49;57.45
16544;BME280;8384;47.996;7.786;2023-04-06T02:17:18;98990.38;;;1.61;57.21
16544;BME280;8384;47.996;7.786;2023-04-06T02:19:43;98979.94;;;1.51;57.48
16544;BME280;8384;47.996;7.786;2023-04-06T02:22:09;98981.56;;;1.45;57.53
16544;BME280;8384;47.996;7.786;2023-04-06T02:24:34;98988.25;;;1.28;58.23
16544;BME280;8384;47.996;7.786;2023-04-06T02:27:00;98988.81;;;1.45;58.13
16544;BME280;8384;47.996;7.786;2023-04-06T02:29:25;98970.38;;;1.20;58.57
16544;BME280;8384;47.996;7.786;2023-04-06T02:31:51;98960.78;;;1.11;58.91
16544;BME280;8384;47.996;7.786;2023-04-06T02:34:16;98980.94;;;1.22;59.28
16544;BME280;8384;47.996;7.786;2023-04-06T02:36:44;98987.91;;;1.38;59.05
16544;BME280;8384;47.996;7.786;2023-04-06T02:39:10;98983.00;;;1.41;58.39
16544;BME280;8384;47.996;7.786;2023-04-06T02:41:35;98986.06;;;1.38;58.25
16544;BME280;8384;47.996;7.786;2023-04-06T02:44:01;98980.78;;;1.23;58.86
16544;BME280;8384;47.996;7.786;2023-04-06T02:46:26;98969.69;;;1.11;58.59
16544;BME280;8384;47.996;7.786;2023-04-06T02:48:51;98981.88;;;1.35;58.48
16544;BME280;8384;47.996;7.786;2023-04-06T02:51:16;98966.63;;;1.43;58.67
16544;BME280;8384;47.996;7.786;2023-04-06T02:53:42;98975.69;;;1.35;58.60
16544;BME280;8384;47.996;7.786;2023-04-06T02:56:07;98967.78;;;1.33;58.69
16544;BME280;8384;47.996;7.786;2023-04-06T02:58:32;98977.75;;;1.33;58.68
16544;BME280;8384;47.996;7.786;2023-04-06T03:00:58;98972.75;;;1.30;58.78
16544;BME280;8384;47.996;7.786;2023-04-06T03:03:23;98973.34;;;1.25;58.65
16544;BME280;8384;47.996;7.786;2023-04-06T03:05:48;98974.78;;;1.28;58.33
16544;BME280;8384;47.996;7.786;2023-04-06T03:08:13;98967.75;;;1.27;58.68
16544;BME280;8384;47.996;7.786;2023-04-06T03:10:39;98979.53;;;1.26;58.62
16544;BME280;8384;47.996;7.786;2023-04-06T03:13:05;98975.66;;;1.28;58.68
16544;BME280;8384;47.996;7.786;2023-04-06T03:15:30;98970.38;;;1.20;59.26
16544;BME280;8384;47.996;7.786;2023-04-06T03:17:55;98975.47;;;1.08;59.02
16544;BME280;8384;47.996;7.786;2023-04-06T03:20:20;98970.78;;;1.17;59.13
16544;BME280;8384;47.996;7.786;2023-04-06T03:22:46;98971.38;;;1.12;58.52
16544;BME280;8384;47.996;7.786;2023-04-06T03:25:11;98975.47;;;1.08;58.95
16544;BME280;8384;47.996;7.786;2023-04-06T03:27:36;98975.91;;;1.12;58.73
16544;BME280;8384;47.996;7.786;2023-04-06T03:30:02;98952.72;;;0.89;58.94
16544;BME280;8384;47.996;7.786;2023-04-06T03:32:27;98969.31;;;1.14;58.96
16544;BME280;8384;47.996;7.786;2023-04-06T03:34:52;98970.34;;;1.13;58.52
16544;BME280;8384;47.996;7.786;2023-04-06T03:37:18;98958.75;;;0.91;58.72
16544;BME280;8384;47.996;7.786;2023-04-06T03:39:43;98975.66;;;1.07;58.89
16544;BME280;8384;47.996;7.786;2023-04-06T03:42:08;98975.47;;;1.08;58.30
16544;BME280;8384;47.996;7.786;2023-04-06T03:44:33;98964.31;;;1.11;58.09
16544;BME280;8384;47.996;7.786;2023-04-06T03:46:59;98969.69;;;1.11;58.08
16544;BME280;8384;47.996;7.786;2023-04-06T03:49:24;98963.00;;;1.00;58.47
16544;BME280;8384;47.996;7.786;2023-04-06T03:51:49;98955.56;;;1.02;57.93
16544;BME280;8384;47.996;7.786;2023-04-06T03:54:14;98957.78;;;0.99;57.82
16544;BME280;8384;47.996;7.786;2023-04-06T03:56:40;98978.84;;;1.17;57.93
16544;BME280;8384;47.996;7.786;2023-04-06T03:59:05;98952.59;;;0.97;57.45
16544;BME280;8384;47.996;7.786;2023-04-06T04:01:30;98989.97;;;1.07;58.57
16544;BME280;8384;47.996;7.786;2023-04-06T04:03:56;98998.03;;;1.07;58.54
16544;BME280;8384;47.996;7.786;2023-04-06T04:06:21;98987.84;;;1.02;58.79
16544;BME280;8384;47.996;7.786;2023-04-06T04:08:46;99002.06;;;0.96;58.82
16544;BME280;8384;47.996;7.786;2023-04-06T04:11:12;98970.75;;;0.88;58.51
16544;BME280;8384;47.996;7.786;2023-04-06T04:13:37;98981.91;;;0.85;59.25
16544;BME280;8384;47.996;7.786;2023-04-06T04:16:02;98996.06;;;0.94;59.26
16544;BME280;8384;47.996;7.786;2023-04-06T04:18:28;98991.06;;;0.91;59.38
16544;BME280;8384;47.996;7.786;2023-04-06T04:20:53;98997.66;;;1.10;59.30
16544;BME280;8384;47.996;7.786;2023-04-06T04:23:18;98999.31;;;1.11;59.32
16544;BME280;8384;47.996;7.786;2023-04-06T04:25:43;98995.16;;;0.87;59.96
16544;BME280;8384;47.996;7.786;2023-04-06T04:28:09;98983.34;;;0.66;60.12
16544;BME280;8384;47.996;7.786;2023-04-06T04:30:34;99004.66;;;0.68;61.03
16544;BME280;8384;47.996;7.786;2023-04-06T04:32:59;99002.25;;;0.73;61.11
16544;BME280;8384;47.996;7.786;2023-04-06T04:35:26;98997.38;;;0.62;61.28
16544;BME280;8384;47.996;7.786;2023-04-06T04:37:51;98993.59;;;0.56;61.35
16544;BME280;8384;47.996;7.786;2023-04-06T04:40:16;98988.75;;;0.66;60.87
16544;BME280;8384;47.996;7.786;2023-04-06T04:42:42;98970.88;;;0.58;60.62
16544;BME280;8384;47.996;7.786;2023-04-06T04:45:07;99011.03;;;0.82;60.55
16544;BME280;8384;47.996;7.786;2023-04-06T04:47:33;99006.44;;;0.76;61.56
16544;BME280;8384;47.996;7.786;2023-04-06T04:49:58;99018.66;;;0.78;61.52
16544;BME280;8384;47.996;7.786;2023-04-06T04:52:23;99007.47;;;0.74;61.10
16544;BME280;8384;47.996;7.786;2023-04-06T04:54:48;99013.66;;;0.75;61.20
16544;BME280;8384;47.996;7.786;2023-04-06T04:57:14;99016.72;;;0.94;60.38
16544;BME280;8384;47.996;7.786;2023-04-06T04:59:39;99019.03;;;0.75;61.08
16544;BME280;8384;47.996;7.786;2023-04-06T05:02:04;99010.47;;;0.65;61.07
16544;BME280;8384;47.996;7.786;2023-04-06T05:04:30;99023.50;;;0.68;61.38
16544;BME280;8384;47.996;7.786;2023-04-06T05:07:06;99001.50;;;0.79;60.85
16544;BME280;8384;47.996;7.786;2023-04-06T05:09:32;98993.53;;;0.71;61.21
16544;BME280;8384;47.996;7.786;2023-04-06T05:11:58;99000.22;;;0.75;61.13
16544;BME280;8384;47.996;7.786;2023-04-06T05:14:23;99023.78;;;0.95;61.15
16544;BME280;8384;47.996;7.786;2023-04-06T05:16:49;99016.28;;;0.90;60.96
16544;BME280;8384;47.996;7.786;2023-04-06T05:19:14;99004.38;;;0.78;60.66
16544;BME280;8384;47.996;7.786;2023-04-06T05:21:40;99022.75;;;0.96;60.41
16544;BME280;8384;47.996;7.786;2023-04-06T05:24:06;99007.31;;;0.83;60.87
16544;BME280;8384;47.996;7.786;2023-04-06T05:26:32;98996.38;;;0.84;60.30
16544;BME280;8384;47.996;7.786;2023-04-06T05:28:57;99031.56;;;1.04;60.66
16544;BME280;8384;47.996;7.786;2023-04-06T05:31:22;99024.41;;;0.75;61.34
16544;BME280;8384;47.996;7.786;2023-04-06T05:33:48;99027.38;;;1.02;60.32
16544;BME280;8384;47.996;7.786;2023-04-06T05:36:13;99034.16;;;1.19;59.47
16544;BME280;8384;47.996;7.786;2023-04-06T05:38:38;99025.97;;;1.06;59.86
16544;BME280;8384;47.996;7.786;2023-04-06T05:41:04;99024.97;;;1.07;60.11
16544;BME280;8384;47.996;7.786;2023-04-06T05:43:30;99052.41;;;1.17;60.20
16544;BME280;8384;47.996;7.786;2023-04-06T05:45:55;99045.06;;;1.33;59.77
16544;BME280;8384;47.996;7.786;2023-04-06T05:48:20;99042.97;;;1.28;59.62
16544;BME280;8384;47.996;7.786;2023-04-06T05:50:49;99045.25;;;1.53;58.83
16544;BME280;8384;47.996;7.786;2023-04-06T05:53:18;99040.84;;;1.74;58.24
16544;BME280;8384;47.996;7.786;2023-04-06T05:55:43;99026.69;;;1.65;58.25
16544;BME280;8384;47.996;7.786;2023-04-06T05:58:09;99025.94;;;1.78;57.85
16544;BME280;8384;47.996;7.786;2023-04-06T06:00:35;99048.03;;;1.95;57.81
16544;BME280;8384;47.996;7.786;2023-04-06T06:03:00;99025.66;;;1.66;58.58
16544;BME280;8384;47.996;7.786;2023-04-06T06:05:25;99050.97;;;1.72;59.86
16544;BME280;8384;47.996;7.786;2023-04-06T06:07:51;99028.75;;;1.63;60.61
16544;BME280;8384;47.996;7.786;2023-04-06T06:10:16;98996.47;;;1.76;59.20
16544;BME280;8384;47.996;7.786;2023-04-06T06:12:42;99029.84;;;2.10;58.26
16544;BME280;8384;47.996;7.786;2023-04-06T06:15:07;99023.53;;;2.32;56.03
16544;BME280;8384;47.996;7.786;2023-04-06T06:17:33;99050.81;;;2.57;55.27
16544;BME280;8384;47.996;7.786;2023-04-06T06:19:58;99052.31;;;2.60;54.89
16544;BME280;8384;47.996;7.786;2023-04-06T06:22:23;99057.50;;;2.68;54.55
16544;BME280;8384;47.996;7.786;2023-04-06T06:24:49;99058.38;;;2.82;54.57
16544;BME280;8384;47.996;7.786;2023-04-06T06:27:15;99043.69;;;2.98;53.43
16544;BME280;8384;47.996;7.786;2023-04-06T06:29:40;99032.25;;;2.96;53.08
16544;BME280;8384;47.996;7.786;2023-04-06T06:32:06;99036.84;;;3.09;52.82
16544;BME280;8384;47.996;7.786;2023-04-06T06:34:31;99051.81;;;3.32;51.75
16544;BME280;8384;47.996;7.786;2023-04-06T06:36:56;99030.84;;;3.34;51.78
16544;BME280;8384;47.996;7.786;2023-04-06T06:39:22;99053.94;;;3.63;51.16
16544;BME280;8384;47.996;7.786;2023-04-06T06:41:47;99032.50;;;3.62;50.75
16544;BME280;8384;47.996;7.786;2023-04-06T06:44:12;99028.78;;;3.69;50.83
16544;BME280;8384;47.996;7.786;2023-04-06T06:46:37;99049.94;;;3.99;50.10
16544;BME280;8384;47.996;7.786;2023-04-06T06:49:04;99051.97;;;4.17;49.72
16544;BME280;8384;47.996;7.786;2023-04-06T06:51:29;99050.53;;;4.15;49.52
16544;BME280;8384;47.996;7.786;2023-04-06T06:53:55;99055.44;;;4.38;49.15
16544;BME280;8384;47.996;7.786;2023-04-06T06:56:20;99033.81;;;4.45;48.54
16544;BME280;8384;47.996;7.786;2023-04-06T06:58:45;99043.66;;;4.71;47.43
16544;BME280;8384;47.996;7.786;2023-04-06T07:01:11;99056.47;;;4.96;47.13
16544;BME280;8384;47.996;7.786;2023-04-06T07:03:36;99036.69;;;4.95;46.93
16544;BME280;8384;47.996;7.786;2023-04-06T07:06:01;99046.72;;;5.20;45.99
16544;BME280;8384;47.996;7.786;2023-04-06T07:08:27;99055.22;;;5.56;45.39
16544;BME280;8384;47.996;7.786;2023-04-06T07:10:52;99059.09;;;5.67;45.55
16544;BME280;8384;47.996;7.786;2023-04-06T07:13:18;99037.31;;;5.55;45.17
16544;BME280;8384;47.996;7.786;2023-04-06T07:15:48;99068.50;;;5.90;44.97
16544;BME280;8384;47.996;7.786;2023-04-06T07:18:13;99047.56;;;5.97;45.15
16544;BME280;8384;47.996;7.786;2023-04-06T07:20:38;99050.56;;;6.33;45.55
16544;BME280;8384;47.996;7.786;2023-04-06T07:23:04;99060.97;;;6.73;45.17
16544;BME280;8384;47.996;7.786;2023-04-06T07:25:30;99064.63;;;6.97;44.10
16544;BME280;8384;47.996;7.786;2023-04-06T07:27:55;99065.22;;;6.99;44.39
16544;BME280;8384;47.996;7.786;2023-04-06T07:30:20;99063.53;;;6.49;44.75
16544;BME280;8384;47.996;7.786;2023-04-06T07:32:47;99048.16;;;5.80;46.56
16544;BME280;8384;47.996;7.786;2023-04-06T07:35:12;99065.41;;;5.86;48.28
16544;BME280;8384;47.996;7.786;2023-04-06T07:37:37;99061.34;;;6.02;48.24
16544;BME280;8384;47.996;7.786;2023-04-06T07:40:03;99055.31;;;6.19;47.84
16544;BME280;8384;47.996;7.786;2023-04-06T07:42:28;99060.69;;;7.12;46.06
16544;BME280;8384;47.996;7.786;2023-04-06T07:44:53;99061.75;;;7.65;43.92
16544;BME280;8384;47.996;7.786;2023-04-06T07:47:19;99062.59;;;7.77;45.05
16544;BME280;8384;47.996;7.786;2023-04-06T07:49:44;99055.97;;;8.09;45.23
16544;BME280;8384;47.996;7.786;2023-04-06T07:52:10;99053.56;;;8.48;44.33
16544;BME280;8384;47.996;7.786;2023-04-06T07:54:35;99053.66;;;8.65;43.45
16544;BME280;8384;47.996;7.786;2023-04-06T07:57:00;99058.38;;;8.82;43.23
16544;BME280;8384;47.996;7.786;2023-04-06T07:59:26;99054.06;;;9.15;42.64
16544;BME280;8384;47.996;7.786;2023-04-06T08:01:51;99049.50;;;9.33;41.92
16544;BME280;8384;47.996;7.786;2023-04-06T08:04:16;99041.28;;;9.15;41.71
16544;BME280;8384;47.996;7.786;2023-04-06T08:06:41;99054.13;;;8.62;40.68
16544;BME280;8384;47.996;7.786;2023-04-06T08:09:07;99069.44;;;8.39;39.23
16544;BME280;8384;47.996;7.786;2023-04-06T08:11:32;99053.97;;;7.92;39.53
16544;BME280;8384;47.996;7.786;2023-04-06T08:13:57;99045.63;;;8.59;38.17
16544;BME280;8384;47.996;7.786;2023-04-06T08:16:23;99037.75;;;9.32;38.38
16544;BME280;8384;47.996;7.786;2023-04-06T08:18:49;99049.66;;;8.97;37.92
16544;BME280;8384;47.996;7.786;2023-04-06T08:21:14;99039.03;;;9.58;37.50
16544;BME280;8384;47.996;7.786;2023-04-06T08:23:40;99051.06;;;10.14;36.83
16544;BME280;8384;47.996;7.786;2023-04-06T08:26:05;99055.06;;;9.72;36.90
16544;BME280;8384;47.996;7.786;2023-04-06T08:28:30;99049.13;;;9.29;37.12
16544;BME280;8384;47.996;7.786;2023-04-06T08:30:55;99035.84;;;9.67;37.99
16544;BME280;8384;47.996;7.786;2023-04-06T08:33:21;99057.56;;;9.90;35.90
16544;BME280;8384;47.996;7.786;2023-04-06T08:35:46;99052.16;;;9.96;34.93
16544;BME280;8384;47.996;7.786;2023-04-06T08:38:11;99041.56;;;9.65;35.70
16544;BME280;8384;47.996;7.786;2023-04-06T08:40:40;99054.91;;;9.62;35.96
16544;BME280;8384;47.996;7.786;2023-04-06T08:43:09;99033.69;;;9.18;36.39
16544;BME280;8384;47.996;7.786;2023-04-06T08:45:38;99051.50;;;9.71;36.01
16544;BME280;8384;47.996;7.786;2023-04-06T08:48:04;99038.84;;;9.65;35.38
16544;BME280;8384;47.996;7.786;2023-04-06T08:50:33;99048.78;;;9.54;36.39
16544;BME280;8384;47.996;7.786;2023-04-06T08:52:59;99052.09;;;9.73;35.52
16544;BME280;8384;47.996;7.786;2023-04-06T08:55:24;99049.09;;;10.09;35.37
16544;BME280;8384;47.996;7.786;2023-04-06T08:57:50;99036.25;;;9.24;35.31
16544;BME280;8384;47.996;7.786;2023-04-06T09:00:18;99050.56;;;10.17;33.69
16544;BME280;8384;47.996;7.786;2023-04-06T09:02:45;99052.19;;;10.35;32.45
16544;BME280;8384;47.996;7.786;2023-04-06T09:05:11;99050.69;;;10.44;33.04
16544;BME280;8384;47.996;7.786;2023-04-06T09:07:37;99052.03;;;10.25;33.43
16544;BME280;8384;47.996;7.786;2023-04-06T09:10:06;99049.88;;;10.66;32.40
16544;BME280;8384;47.996;7.786;2023-04-06T09:12:32;99051.69;;;10.60;32.22
16544;BME280;8384;47.996;7.786;2023-04-06T09:14:59;99042.69;;;10.82;31.43
16544;BME280;8384;47.996;7.786;2023-04-06T09:17:29;99048.97;;;10.60;33.23
16544;BME280;8384;47.996;7.786;2023-04-06T09:19:56;99051.78;;;10.88;33.18
16544;BME280;8384;47.996;7.786;2023-04-06T09:22:22;99052.41;;;10.95;31.18
16544;BME280;8384;47.996;7.786;2023-04-06T09:24:49;99060.31;;;11.19;31.66
16544;BME280;8384;47.996;7.786;2023-04-06T09:27:15;99039.81;;;10.72;32.20
16544;BME280;8384;47.996;7.786;2023-04-06T09:29:42;99060.88;;;10.49;32.04
16544;BME280;8384;47.996;7.786;2023-04-06T09:32:08;99058.25;;;11.31;32.73
16544;BME280;8384;47.996;7.786;2023-04-06T09:34:40;99047.38;;;11.14;30.61
16544;BME280;8384;47.996;7.786;2023-04-06T09:37:16;99060.78;;;11.38;31.45
16544;BME280;8384;47.996;7.786;2023-04-06T09:39:42;99063.19;;;11.62;32.55
16544;BME280;8384;47.996;7.786;2023-04-06T09:42:08;99063.88;;;11.47;31.63
16544;BME280;8384;47.996;7.786;2023-04-06T09:44:33;99049.28;;;11.68;32.03
16544;BME280;8384;47.996;7.786;2023-04-06T09:46:58;99055.25;;;11.98;31.35
16544;BME280;8384;47.996;7.786;2023-04-06T09:49:30;99048.06;;;11.27;30.74
16544;BME280;8384;47.996;7.786;2023-04-06T09:52:04;99033.44;;;10.88;31.44
16544;BME280;8384;47.996;7.786;2023-04-06T09:54:31;99038.56;;;11.34;32.42
16544;BME280;8384;47.996;7.786;2023-04-06T09:59:50;99051.09;;;12.81;32.68
16544;BME280;8384;47.996;7.786;2023-04-06T10:02:24;99039.03;;;11.91;32.18
16544;BME280;8384;47.996;7.786;2023-04-06T10:07:33;99059.06;;;11.92;29.95
16544;BME280;8384;47.996;7.786;2023-04-06T10:09:59;99052.25;;;11.62;29.83
16544;BME280;8384;47.996;7.786;2023-04-06T10:12:27;99030.53;;;11.55;30.11
16544;BME280;8384;47.996;7.786;2023-04-06T10:14:52;99030.66;;;12.03;31.58
16544;BME280;8384;47.996;7.786;2023-04-06T10:17:18;99030.72;;;11.76;30.36
16544;BME280;8384;47.996;7.786;2023-04-06T10:19:53;99039.97;;;12.50;30.98
16544;BME280;8384;47.996;7.786;2023-04-06T10:22:24;99016.41;;;13.49;28.84
16544;BME280;8384;47.996;7.786;2023-04-06T10:24:51;99037.19;;;13.29;29.74
16544;BME280;8384;47.996;7.786;2023-04-06T10:27:27;99009.69;;;12.24;30.67
16544;BME280;8384;47.996;7.786;2023-04-06T10:29:52;99046.88;;;12.58;29.09
16544;BME280;8384;47.996;7.786;2023-04-06T10:32:18;98998.50;;;11.93;29.37
16544;BME280;8384;47.996;7.786;2023-04-06T10:34:43;99050.28;;;12.27;30.04
16544;BME280;8384;47.996;7.786;2023-04-06T10:37:16;99029.25;;;12.43;30.77
16544;BME280;8384;47.996;7.786;2023-04-06T10:39:52;99022.25;;;12.68;29.96
16544;BME280;8384;47.996;7.786;2023-04-06T10:42:36;99022.06;;;13.01;29.22
16544;BME280;8384;47.996;7.786;2023-04-06T10:45:06;99019.34;;;13.16;29.02
16544;BME280;8384;47.996;7.786;2023-04-06T10:47:39;99010.59;;;13.66;28.93
16544;BME280;8384;47.996;7.786;2023-04-06T10:50:05;99011.13;;;13.22;28.01
16544;BME280;8384;47.996;7.786;2023-04-06T10:52:31;99019.63;;;13.20;27.27
16544;BME280;8384;47.996;7.786;2023-04-06T10:54:56;99000.97;;;13.22;27.91
16544;BME280;8384;47.996;7.786;2023-04-06T10:57:28;99020.13;;;13.07;27.65
16544;BME280;8384;47.996;7.786;2023-04-06T10:59:54;99015.84;;;13.73;26.99
16544;BME280;8384;47.996;7.786;2023-04-06T11:02:20;99017.16;;;13.39;26.67
16544;BME280;8384;47.996;7.786;2023-04-06T11:04:55;99008.03;;;12.87;27.38
16544;BME280;8384;47.996;7.786;2023-04-06T11:07:26;98999.28;;;14.09;25.72
16544;BME280;8384;47.996;7.786;2023-04-06T11:09:52;99003.69;;;13.17;27.71
16544;BME280;8384;47.996;7.786;2023-04-06T11:12:25;99001.03;;;13.48;27.46
16544;BME280;8384;47.996;7.786;2023-04-06T11:14:58;99006.19;;;13.29;26.54
16544;BME280;8384;47.996;7.786;2023-04-06T11:17:30;98998.16;;;12.91;27.13
16544;BME280;8384;47.996;7.786;2023-04-06T11:19:57;99001.69;;;12.86;28.46
16544;BME280;8384;47.996;7.786;2023-04-06T11:22:22;99001.50;;;13.29;25.83
16544;BME280;8384;47.996;7.786;2023-04-06T11:24:48;99003.94;;;13.00;26.29
16544;BME280;8384;47.996;7.786;2023-04-06T11:27:14;98999.25;;;12.90;25.19
16544;BME280;8384;47.996;7.786;2023-04-06T11:29:41;98973.34;;;12.50;27.30
16544;BME280;8384;47.996;7.786;2023-04-06T11:32:07;98993.63;;;12.43;25.10
16544;BME280;8384;47.996;7.786;2023-04-06T11:34:35;98986.44;;;12.32;26.10
16544;BME280;8384;47.996;7.786;2023-04-06T11:37:03;98940.84;;;13.26;26.39
16544;BME280;8384;47.996;7.786;2023-04-06T11:39:31;98984.53;;;14.70;24.09
16544;BME280;8384;47.996;7.786;2023-04-06T11:42:01;99000.13;;;14.15;24.06
16544;BME280;8384;47.996;7.786;2023-04-06T11:44:37;98992.38;;;14.22;25.83
16544;BME280;8384;47.996;7.786;2023-04-06T11:47:05;98988.03;;;15.26;25.17
16544;BME280;8384;47.996;7.786;2023-04-06T11:49:32;98988.94;;;15.17;24.59
16544;BME280;8384;47.996;7.786;2023-04-06T11:51:58;98978.50;;;13.72;25.71
16544;BME280;8384;47.996;7.786;2023-04-06T11:54:37;98962.00;;;14.58;24.27
16544;BME280;8384;47.996;7.786;2023-04-06T11:57:04;98976.78;;;15.23;24.72
16544;BME280;8384;47.996;7.786;2023-04-06T11:59:33;98978.72;;;15.92;23.54
16544;BME280;8384;47.996;7.786;2023-04-06T12:01:58;98964.78;;;15.43;24.22
16544;BME280;8384;47.996;7.786;2023-04-06T12:04:24;98968.53;;;16.16;22.81
16544;BME280;8384;47.996;7.786;2023-04-06T12:06:49;98957.09;;;15.69;23.25
16544;BME280;8384;47.996;7.786;2023-04-06T12:09:16;98972.25;;;14.97;24.23
16544;BME280;8384;47.996;7.786;2023-04-06T12:11:42;98965.13;;;14.31;24.85
16544;BME280;8384;47.996;7.786;2023-04-06T12:14:08;98962.34;;;14.46;24.52
16544;BME280;8384;47.996;7.786;2023-04-06T12:16:34;98967.28;;;15.74;24.37
16544;BME280;8384;47.996;7.786;2023-04-06T12:19:00;98957.25;;;16.37;23.42
16544;BME280;8384;47.996;7.786;2023-04-06T12:21:30;98963.09;;;16.06;23.57
16544;BME280;8384;47.996;7.786;2023-04-06T12:23:59;98960.47;;;16.44;23.54
16544;BME280;8384;47.996;7.786;2023-04-06T12:26:25;98945.50;;;16.51;22.59
16544;BME280;8384;47.996;7.786;2023-04-06T12:28:51;98954.84;;;15.47;23.03
16544;BME280;8384;47.996;7.786;2023-04-06T12:31:17;98943.75;;;14.12;25.58
16544;BME280;8384;47.996;7.786;2023-04-06T12:33:46;98915.13;;;14.29;24.54
16544;BME280;8384;47.996;7.786;2023-04-06T12:36:12;98955.91;;;14.72;24.09
16544;BME280;8384;47.996;7.786;2023-04-06T12:38:39;98950.19;;;15.08;24.73
16544;BME280;8384;47.996;7.786;2023-04-06T12:41:06;98956.81;;;15.41;24.48
16544;BME280;8384;47.996;7.786;2023-04-06T12:43:32;98955.59;;;15.82;24.47
16544;BME280;8384;47.996;7.786;2023-04-06T12:45:57;98945.56;;;16.45;24.11
16544;BME280;8384;47.996;7.786;2023-04-06T12:48:25;98952.72;;;17.09;22.90
16544;BME280;8384;47.996;7.786;2023-04-06T12:51:06;98936.47;;;17.41;22.06
16544;BME280;8384;47.996;7.786;2023-04-06T12:53:33;98941.97;;;17.74;22.19
16544;BME280;8384;47.996;7.786;2023-04-06T12:56:00;98937.91;;;17.85;22.03
16544;BME280;8384;47.996;7.786;2023-04-06T12:58:26;98939.88;;;16.99;23.03
16544;BME280;8384;47.996;7.786;2023-04-06T13:00:52;98938.13;;;16.65;23.95
16544;BME280;8384;47.996;7.786;2023-04-06T13:03:18;98928.41;;;16.48;22.49
16544;BME280;8384;47.996;7.786;2023-04-06T13:05:49;98931.31;;;14.91;23.82
16544;BME280;8384;47.996;7.786;2023-04-06T13:08:16;98936.72;;;15.41;23.78
16544;BME280;8384;47.996;7.786;2023-04-06T13:10:49;98934.91;;;16.77;23.83
16544;BME280;8384;47.996;7.786;2023-04-06T13:13:24;98925.59;;;16.73;22.84
16544;BME280;8384;47.996;7.786;2023-04-06T13:15:50;98933.84;;;17.16;21.96
16544;BME280;8384;47.996;7.786;2023-04-06T13:18:16;98924.34;;;14.53;23.71